createdAt,value
2022-09-11T00:09:24.023Z,4.10
2022-09-11T00:19:57.814Z,2.58
2022-09-11T00:30:15.446Z,4.13
2022-09-11T00:41:13.788Z,3.67
2022-09-11T01:03:35.823Z,3.90
2022-09-11T01:13:49.435Z,3.70
2022-09-11T01:24:10.727Z,4.90
2022-09-11T01:34:26.410Z,3.70
2022-09-11T01:44:38.709Z,3.60
2022-09-11T01:55:00.032Z,4.40
2022-09-11T02:05:13.566Z,2.78
2022-09-11T02:15:29.374Z,3.60
2022-09-11T02:25:39.003Z,2.78
2022-09-11T02:35:52.648Z,4.13
2022-09-11T02:46:15.367Z,2.60
2022-09-11T02:56:31.560Z,3.58
2022-09-11T03:18:17.409Z,4.20
2022-09-11T03:28:53.941Z,4.68
2022-09-11T03:51:56.096Z,4.50
2022-09-11T04:03:06.696Z,7.15
2022-09-11T04:38:42.063Z,8.70
2022-09-11T04:49:00.269Z,9.60
2022-09-11T04:59:42.402Z,9.90
2022-09-11T05:09:55.540Z,10.00
2022-09-11T05:20:02.670Z,9.73
2022-09-11T05:30:14.919Z,9.52
2022-09-11T05:40:23.776Z,9.38
2022-09-11T05:50:34.408Z,9.15
2022-09-11T06:00:42.800Z,9.90
2022-09-11T06:10:55.850Z,10.15
2022-09-11T06:21:04.988Z,8.75
2022-09-11T06:31:23.243Z,13.88
2022-09-11T06:41:35.511Z,9.25
2022-09-11T06:51:53.132Z,9.00
2022-09-11T07:02:01.953Z,9.73
2022-09-11T07:12:12.397Z,8.75
2022-09-11T07:22:23.175Z,10.60
2022-09-11T07:32:33.707Z,9.40
2022-09-11T07:42:41.389Z,10.32
2022-09-11T07:52:53.395Z,11.52
2022-09-11T08:03:01.961Z,10.60
2022-09-11T08:13:15.728Z,11.68
2022-09-11T08:23:26.169Z,11.57
2022-09-11T08:33:42.926Z,12.40
2022-09-11T08:44:02.710Z,14.53
2022-09-11T08:54:25.001Z,14.07
2022-09-11T09:05:12.538Z,15.53
2022-09-11T09:15:36.121Z,13.50
2022-09-11T09:25:46.368Z,14.38
2022-09-11T09:35:56.283Z,16.27
2022-09-11T09:46:26.054Z,15.32
2022-09-11T09:56:57.155Z,15.82
2022-09-11T10:07:15.738Z,15.35
2022-09-11T10:17:57.212Z,15.50
2022-09-11T10:28:14.947Z,16.30
2022-09-11T10:38:53.157Z,15.90
2022-09-11T10:49:03.013Z,16.20
2022-09-11T10:59:20.116Z,15.45
2022-09-11T11:09:45.581Z,16.23
2022-09-11T11:20:15.371Z,16.45
2022-09-11T11:30:25.099Z,17.50
2022-09-11T11:40:39.862Z,16.30
2022-09-11T11:50:54.315Z,16.45
2022-09-11T12:01:07.556Z,16.67
2022-09-11T12:11:25.030Z,19.13
2022-09-11T12:21:45.802Z,17.38
2022-09-11T12:32:30.219Z,19.37
2022-09-11T12:43:01.422Z,18.27
2022-09-11T12:53:20.728Z,18.83
2022-09-11T13:03:33.960Z,20.10
2022-09-11T13:13:48.052Z,20.02
2022-09-11T13:24:24.190Z,23.23
2022-09-11T13:34:32.731Z,24.40
2022-09-11T13:44:45.493Z,24.25
2022-09-11T14:06:20.757Z,29.57
2022-09-11T14:16:34.361Z,27.73
2022-09-11T14:26:46.419Z,28.77
2022-09-11T14:36:58.894Z,28.90
2022-09-11T14:47:11.533Z,30.85
2022-09-11T14:57:32.452Z,31.98
2022-09-11T15:07:52.346Z,36.70
2022-09-11T15:18:14.156Z,36.00
2022-09-11T15:28:37.238Z,34.03
2022-09-11T15:38:47.390Z,33.20
2022-09-11T15:48:56.544Z,26.40
2022-09-11T15:59:04.204Z,14.85
2022-09-11T16:09:16.445Z,18.10
2022-09-11T16:19:24.885Z,10.30
2022-09-11T16:29:56.590Z,6.20
2022-09-11T16:40:01.023Z,4.87
2022-09-11T16:50:10.426Z,3.35
2022-09-11T17:00:18.249Z,4.60
2022-09-11T17:10:27.608Z,5.43
2022-09-11T17:20:37.440Z,7.15
2022-09-11T17:30:46.606Z,10.32
2022-09-11T17:40:54.242Z,10.20
2022-09-11T17:51:08.435Z,9.32
2022-09-11T18:01:23.984Z,11.23
2022-09-11T18:11:43.475Z,39.37
2022-09-11T18:21:59.877Z,49.55
2022-09-11T18:33:13.087Z,54.67
2022-09-11T18:43:44.898Z,64.30
2022-09-11T19:16:00.363Z,80.85
2022-09-11T19:26:19.371Z,93.07
2022-09-11T19:36:34.739Z,84.70
2022-09-11T19:46:48.357Z,84.30
2022-09-11T19:57:00.236Z,85.55
2022-09-11T20:07:13.864Z,82.82
2022-09-11T20:17:32.728Z,79.78
2022-09-11T20:27:40.989Z,79.57
2022-09-11T20:38:00.471Z,76.63
2022-09-11T20:48:19.914Z,77.00
2022-09-11T20:58:35.619Z,74.43
2022-09-11T21:08:44.513Z,75.88
2022-09-11T21:18:57.831Z,73.88
2022-09-11T21:29:07.959Z,66.93
2022-09-11T21:39:22.112Z,58.63
2022-09-11T21:49:34.274Z,47.70
2022-09-11T21:59:45.686Z,41.95
2022-09-11T22:09:53.468Z,38.40
2022-09-11T22:20:08.712Z,36.05
2022-09-11T22:30:17.296Z,35.97
2022-09-11T22:40:26.535Z,36.53
2022-09-11T22:50:37.613Z,33.53
2022-09-11T23:00:49.923Z,27.25
2022-09-11T23:11:12.073Z,12.40
2022-09-11T23:21:29.483Z,8.15
2022-09-11T23:31:55.628Z,5.30
2022-09-11T23:42:11.328Z,3.58
2022-09-11T23:52:55.571Z,2.80
